createdAt,value
2022-09-26T00:47:41.782Z,20.07
2022-09-26T00:50:13.588Z,20.07
2022-09-26T00:52:42.702Z,20.08
2022-09-26T00:55:11.785Z,20.08
2022-09-26T00:57:42.701Z,20.08
2022-09-26T01:00:11.342Z,20.09
2022-09-26T01:47:22.992Z,20.08
2022-09-26T01:49:53.933Z,20.08
2022-09-26T01:52:23.481Z,20.09
2022-09-26T01:54:52.885Z,20.09
2022-09-26T01:57:22.281Z,20.09
2022-09-26T01:59:49.988Z,20.07
2022-09-26T02:47:20.548Z,20.10
2022-09-26T02:49:54.919Z,20.09
2022-09-26T02:52:27.160Z,20.08
2022-09-26T02:54:57.049Z,20.09
2022-09-26T02:57:26.821Z,20.09
2022-09-26T02:59:57.681Z,20.08
2022-09-26T03:46:20.089Z,20.12
2022-09-26T03:48:48.295Z,20.11
2022-09-26T03:51:16.010Z,20.11
2022-09-26T03:53:44.281Z,20.11
2022-09-26T03:56:16.066Z,20.10
2022-09-26T03:58:43.801Z,20.11
2022-09-26T04:31:21.653Z,20.11
2022-09-26T04:33:55.395Z,20.11
2022-09-26T04:36:24.257Z,20.10
2022-09-26T04:38:52.061Z,20.07
2022-09-26T04:41:21.011Z,20.08
2022-09-26T04:43:49.749Z,20.09
2022-09-26T04:46:22.318Z,20.09
2022-09-26T04:48:54.063Z,20.07
2022-09-26T04:51:22.590Z,20.10
2022-09-26T04:53:51.461Z,20.08
2022-09-26T04:56:23.536Z,20.06
2022-09-26T04:58:51.027Z,20.07
2022-09-26T05:01:19.857Z,20.07
2022-09-26T05:04:09.823Z,20.06
2022-09-26T05:06:39.186Z,20.11
2022-09-26T05:09:09.856Z,20.11
2022-09-26T05:11:57.597Z,20.11
2022-09-26T05:14:25.526Z,20.10
2022-09-26T05:16:53.544Z,20.11
2022-09-26T05:19:22.745Z,20.07
2022-09-26T05:22:16.756Z,20.07
2022-09-26T05:25:02.228Z,20.07
2022-09-26T05:27:29.876Z,20.07
2022-09-26T05:30:04.294Z,20.07
2022-09-26T05:32:32.004Z,20.07
2022-09-26T05:35:01.347Z,20.06
2022-09-26T05:37:31.946Z,20.10
2022-09-26T05:40:18.414Z,20.15
2022-09-26T05:42:50.727Z,20.15
2022-09-26T05:45:19.865Z,20.15
2022-09-26T05:47:48.756Z,20.13
2022-09-26T05:50:22.294Z,20.14
2022-09-26T05:52:50.977Z,20.13
2022-09-26T05:55:24.059Z,20.12
2022-09-26T05:58:00.914Z,20.09
2022-09-26T06:00:49.333Z,19.95
2022-09-26T06:03:17.621Z,17.35
2022-09-26T06:06:06.143Z,17.98
2022-09-26T06:08:35.227Z,18.23
2022-09-26T06:11:29.499Z,18.01
2022-09-26T06:13:58.186Z,17.96
2022-09-26T06:16:26.157Z,18.20
2022-09-26T06:18:55.956Z,18.04
2022-09-26T06:21:25.340Z,18.03
2022-09-26T06:24:02.443Z,17.67
2022-09-26T06:26:31.032Z,17.19
2022-09-26T06:29:00.076Z,16.49
2022-09-26T06:31:30.214Z,15.94
2022-09-26T06:34:09.838Z,17.36
2022-09-26T06:36:53.743Z,18.21
2022-09-26T06:39:21.271Z,18.55
2022-09-26T06:41:49.754Z,18.72
2022-09-26T06:44:31.409Z,18.87
2022-09-26T06:47:18.440Z,18.90
2022-09-26T06:49:49.344Z,18.93
2022-09-26T06:52:34.886Z,18.96
2022-09-26T06:55:03.454Z,18.99
2022-09-26T06:57:37.244Z,19.01
2022-09-26T07:00:04.895Z,19.00
2022-09-26T07:02:51.975Z,19.09
2022-09-26T07:05:38.282Z,19.12
2022-09-26T07:08:07.239Z,19.20
2022-09-26T07:10:36.067Z,19.26
2022-09-26T07:13:05.241Z,19.29
2022-09-26T07:15:33.889Z,19.32
2022-09-26T07:18:06.407Z,19.34
2022-09-26T07:20:56.620Z,19.37
2022-09-26T07:23:34.057Z,19.38
2022-09-26T07:26:02.631Z,19.40
2022-09-26T07:28:31.551Z,19.28
2022-09-26T07:30:59.599Z,19.15
2022-09-26T07:33:40.195Z,19.10
2022-09-26T07:36:09.749Z,19.07
2022-09-26T07:38:39.229Z,19.17
2022-09-26T07:41:10.787Z,19.13
2022-09-26T07:44:46.145Z,19.12
2022-09-26T07:46:43.891Z,19.07
2022-09-26T07:49:29.767Z,19.09
2022-09-26T07:52:22.580Z,19.14
2022-09-26T07:55:10.444Z,19.29
2022-09-26T07:57:59.224Z,19.37
2022-09-26T08:00:46.939Z,19.44
2022-09-26T08:03:30.111Z,19.46
2022-09-26T08:06:00.843Z,19.49
2022-09-26T08:08:29.417Z,19.50
2022-09-26T08:11:03.938Z,19.53
2022-09-26T08:13:49.172Z,19.53
2022-09-26T08:16:19.542Z,19.55
2022-09-26T08:18:48.152Z,19.57
2022-09-26T08:21:15.656Z,19.58
2022-09-26T08:23:43.216Z,19.59
2022-09-26T08:26:30.754Z,19.59
2022-09-26T08:29:23.519Z,19.62
2022-09-26T08:31:54.794Z,19.61
2022-09-26T08:34:25.391Z,19.63
2022-09-26T08:37:28.930Z,19.64
2022-09-26T08:40:15.092Z,19.65
2022-09-26T08:43:04.312Z,19.67
2022-09-26T08:46:04.331Z,19.68
2022-09-26T08:48:48.170Z,19.69
2022-09-26T08:51:23.310Z,19.69
2022-09-26T08:53:53.907Z,19.69
2022-09-26T08:56:22.824Z,19.71
2022-09-26T08:58:52.368Z,19.72
2022-09-26T09:01:24.144Z,19.73
2022-09-26T09:04:13.895Z,19.73
2022-09-26T09:06:41.620Z,19.74
2022-09-26T09:09:09.133Z,19.74
2022-09-26T09:11:51.461Z,19.77
2022-09-26T09:14:24.306Z,19.75
2022-09-26T09:17:04.997Z,19.75
2022-09-26T09:20:11.510Z,19.78
2022-09-26T09:22:52.277Z,19.80
2022-09-26T09:25:23.978Z,19.80
2022-09-26T09:28:01.260Z,19.80
2022-09-26T09:30:34.642Z,19.83
2022-09-26T09:33:35.668Z,19.84
2022-09-26T09:36:17.758Z,19.84
2022-09-26T09:39:20.329Z,19.86
2022-09-26T09:41:55.657Z,19.89
2022-09-26T09:44:26.832Z,19.89
2022-09-26T09:46:55.817Z,19.88
2022-09-26T09:49:24.596Z,19.88
2022-09-26T09:51:56.874Z,19.89
2022-09-26T09:54:30.551Z,19.88
2022-09-26T09:57:07.003Z,19.89
2022-09-26T09:59:41.955Z,19.90
2022-09-26T10:02:15.815Z,19.89
2022-09-26T10:04:44.399Z,19.90
2022-09-26T10:07:12.832Z,19.90
2022-09-26T10:09:44.937Z,19.91
2022-09-26T10:12:36.983Z,19.74
2022-09-26T10:15:27.621Z,19.69
2022-09-26T10:18:26.667Z,19.69
2022-09-26T10:21:12.744Z,19.70
2022-09-26T10:23:40.908Z,19.80
2022-09-26T10:26:14.713Z,19.90
2022-09-26T10:28:44.596Z,19.93
2022-09-26T10:31:12.477Z,19.95
2022-09-26T10:34:05.397Z,19.95
2022-09-26T10:36:33.322Z,19.96
2022-09-26T10:39:18.428Z,19.96
2022-09-26T10:41:49.397Z,19.97
2022-09-26T10:44:24.294Z,19.98
2022-09-26T10:47:18.815Z,19.98
2022-09-26T10:50:07.962Z,19.99
2022-09-26T10:53:02.391Z,20.01
2022-09-26T10:55:32.240Z,20.01
2022-09-26T10:58:01.091Z,20.01
2022-09-26T11:00:36.743Z,20.02
2022-09-26T11:03:07.235Z,20.03
2022-09-26T11:06:00.155Z,20.04
2022-09-26T11:08:30.687Z,20.04
2022-09-26T11:11:15.987Z,19.81
2022-09-26T11:14:01.720Z,19.89
2022-09-26T11:16:31.566Z,19.96
2022-09-26T11:19:04.103Z,20.00
2022-09-26T11:21:36.704Z,19.90
2022-09-26T11:24:07.272Z,19.82
2022-09-26T11:26:35.388Z,19.89
2022-09-26T11:29:06.022Z,19.94
2022-09-26T11:31:41.284Z,19.95
2022-09-26T11:34:28.809Z,19.96
2022-09-26T11:37:05.203Z,19.99
2022-09-26T11:39:36.607Z,19.98
2022-09-26T11:42:06.592Z,19.99
2022-09-26T11:44:54.829Z,20.00
2022-09-26T11:47:50.145Z,20.00
2022-09-26T11:50:35.604Z,20.00
2022-09-26T11:53:40.379Z,20.01
2022-09-26T11:56:11.679Z,20.00
2022-09-26T11:58:41.227Z,20.02
2022-09-26T12:01:13.006Z,20.02
2022-09-26T12:04:01.900Z,20.02
2022-09-26T12:06:33.319Z,20.02
2022-09-26T12:09:16.734Z,20.02
2022-09-26T12:11:45.722Z,20.01
2022-09-26T12:14:16.454Z,20.01
2022-09-26T12:16:46.681Z,20.03
2022-09-26T12:19:17.047Z,20.02
2022-09-26T12:22:03.801Z,20.02
2022-09-26T12:24:34.118Z,20.01
2022-09-26T12:27:03.057Z,20.01
2022-09-26T12:29:33.084Z,20.02
2022-09-26T12:32:03.208Z,20.02
2022-09-26T12:34:43.044Z,20.02
2022-09-26T12:37:14.254Z,20.03
2022-09-26T12:39:57.297Z,20.01
2022-09-26T12:42:29.155Z,20.00
2022-09-26T12:45:11.633Z,20.00
2022-09-26T12:47:50.751Z,20.01
2022-09-26T12:50:19.009Z,20.00
2022-09-26T12:53:01.567Z,20.04
2022-09-26T12:55:31.989Z,20.03
2022-09-26T12:58:05.987Z,20.04
2022-09-26T13:00:40.740Z,20.04
2022-09-26T13:03:16.497Z,20.04
2022-09-26T13:06:06.257Z,20.05
2022-09-26T13:08:36.890Z,20.06
2022-09-26T13:11:12.890Z,19.93
2022-09-26T13:13:59.108Z,19.91
2022-09-26T13:16:31.697Z,19.95
2022-09-26T13:19:01.449Z,19.96
2022-09-26T13:21:34.010Z,20.00
2022-09-26T13:24:02.041Z,20.01
2022-09-26T13:26:31.353Z,20.01
2022-09-26T13:29:17.186Z,20.02
2022-09-26T13:31:46.185Z,20.03
2022-09-26T13:34:15.033Z,20.01
2022-09-26T13:36:42.911Z,20.01
2022-09-26T13:39:10.737Z,19.99
2022-09-26T13:41:40.746Z,19.99
2022-09-26T13:44:16.972Z,19.99
2022-09-26T13:46:49.058Z,19.97
2022-09-26T13:49:21.181Z,19.98
2022-09-26T13:51:49.868Z,20.01
2022-09-26T13:54:19.199Z,20.03
2022-09-26T13:56:49.576Z,20.04
2022-09-26T13:59:27.674Z,20.04
2022-09-26T14:02:17.415Z,20.03
2022-09-26T14:04:45.136Z,20.04
2022-09-26T14:07:33.912Z,20.03
2022-09-26T14:10:09.261Z,20.03
2022-09-26T14:12:52.511Z,20.04
2022-09-26T14:15:24.159Z,20.05
2022-09-26T14:17:59.632Z,20.06
2022-09-26T14:20:28.111Z,20.07
2022-09-26T14:22:56.598Z,20.06
2022-09-26T14:25:52.694Z,20.06
2022-09-26T14:28:22.849Z,20.05
2022-09-26T14:31:05.448Z,20.05
2022-09-26T14:33:34.762Z,20.06
2022-09-26T14:36:18.576Z,20.05
2022-09-26T14:38:46.831Z,20.06
2022-09-26T14:41:17.645Z,20.05
2022-09-26T14:43:45.249Z,20.03
2022-09-26T14:46:16.236Z,20.04
2022-09-26T14:48:45.243Z,20.03
2022-09-26T14:51:23.957Z,20.04
2022-09-26T14:53:56.270Z,20.04
2022-09-26T14:56:32.689Z,20.05
2022-09-26T14:59:15.505Z,20.05
2022-09-26T15:01:43.214Z,20.02
2022-09-26T15:04:14.463Z,20.04
2022-09-26T15:06:43.099Z,20.04
2022-09-26T15:09:11.649Z,20.04
2022-09-26T15:11:42.423Z,20.04
2022-09-26T15:14:14.964Z,20.04
2022-09-26T15:16:45.185Z,20.02
2022-09-26T15:19:15.246Z,20.03
2022-09-26T15:21:43.504Z,20.01
2022-09-26T15:24:24.270Z,20.01
2022-09-26T15:26:51.958Z,20.02
2022-09-26T15:29:19.573Z,20.01
2022-09-26T15:31:47.445Z,20.03
2022-09-26T15:34:17.488Z,20.03
2022-09-26T15:36:46.255Z,20.04
2022-09-26T15:39:32.641Z,20.03
2022-09-26T15:42:18.336Z,20.03
2022-09-26T15:44:48.311Z,20.03
2022-09-26T15:47:26.653Z,20.03
2022-09-26T15:50:04.448Z,20.04
2022-09-26T15:52:35.279Z,20.06
2022-09-26T15:55:03.216Z,20.05
2022-09-26T15:57:31.144Z,20.06
2022-09-26T15:59:59.538Z,20.06
2022-09-26T16:02:30.387Z,20.04
2022-09-26T16:04:58.074Z,20.04
2022-09-26T16:07:27.913Z,20.04
2022-09-26T16:09:56.164Z,20.04
2022-09-26T16:12:24.678Z,20.04
2022-09-26T16:14:53.565Z,20.03
2022-09-26T16:17:22.740Z,20.02
2022-09-26T16:19:50.893Z,20.04
2022-09-26T16:22:21.799Z,20.05
2022-09-26T16:24:51.926Z,20.03
2022-09-26T16:27:27.664Z,20.02
2022-09-26T16:29:55.422Z,19.93
2022-09-26T16:32:23.108Z,19.96
2022-09-26T16:34:50.952Z,19.99
2022-09-26T16:37:18.885Z,20.00
2022-09-26T16:39:55.069Z,20.01
2022-09-26T16:42:22.956Z,20.01
2022-09-26T16:44:51.596Z,20.01
2022-09-26T16:47:33.935Z,20.01
2022-09-26T16:50:16.625Z,20.01
2022-09-26T16:52:46.172Z,20.01
2022-09-26T16:55:15.354Z,20.00
2022-09-26T16:57:47.548Z,20.01
2022-09-26T17:00:52.178Z,20.00
2022-09-26T17:03:22.121Z,19.87
2022-09-26T17:05:50.244Z,19.80
2022-09-26T17:08:18.563Z,19.76
2022-09-26T17:10:48.100Z,19.78
2022-09-26T17:13:17.104Z,19.87
2022-09-26T17:15:45.469Z,19.89
2022-09-26T17:18:20.870Z,19.91
2022-09-26T17:20:49.207Z,19.91
2022-09-26T17:23:38.831Z,19.91
2022-09-26T17:26:07.746Z,19.90
2022-09-26T17:28:37.525Z,19.91
2022-09-26T17:31:07.582Z,19.90
2022-09-26T17:33:35.783Z,19.90
2022-09-26T17:36:03.907Z,19.91
2022-09-26T17:38:35.622Z,19.89
2022-09-26T17:41:08.831Z,19.89
2022-09-26T17:43:36.642Z,19.88
2022-09-26T17:46:04.928Z,19.88
2022-09-26T17:48:33.292Z,19.88
2022-09-26T17:51:02.241Z,19.88
2022-09-26T17:53:32.725Z,19.88
2022-09-26T17:56:03.178Z,19.89
2022-09-26T17:58:34.192Z,19.87
2022-09-26T18:01:04.792Z,19.88
2022-09-26T18:03:34.006Z,19.93
2022-09-26T18:06:02.384Z,19.94
2022-09-26T18:08:30.788Z,19.95
2022-09-26T18:10:59.956Z,19.95
2022-09-26T18:13:30.687Z,19.96
2022-09-26T18:16:00.390Z,19.95
2022-09-26T18:18:28.888Z,19.95
2022-09-26T18:20:57.423Z,19.94
2022-09-26T18:23:25.451Z,19.95
2022-09-26T18:25:53.910Z,19.94
2022-09-26T18:28:22.290Z,19.94
2022-09-26T18:30:53.284Z,19.94
2022-09-26T18:33:25.591Z,19.94
2022-09-26T18:35:53.233Z,19.94
2022-09-26T18:38:22.171Z,19.93
2022-09-26T18:40:51.679Z,19.93
2022-09-26T18:43:20.248Z,19.93
2022-09-26T18:45:48.370Z,19.93
2022-09-26T18:48:17.430Z,19.92
2022-09-26T18:50:47.367Z,19.93
2022-09-26T18:53:15.468Z,19.94
2022-09-26T18:56:00.307Z,19.91
2022-09-26T18:58:28.387Z,19.93
2022-09-26T19:00:57.080Z,19.91
2022-09-26T19:03:25.459Z,19.91
2022-09-26T19:05:59.606Z,19.91
2022-09-26T19:08:33.606Z,19.91
2022-09-26T19:11:04.146Z,19.90
2022-09-26T19:13:32.753Z,19.90
2022-09-26T19:16:00.541Z,19.89
2022-09-26T19:18:29.722Z,19.91
2022-09-26T19:21:00.191Z,19.90
2022-09-26T19:23:27.889Z,19.89
2022-09-26T19:25:55.803Z,19.89
2022-09-26T19:28:24.437Z,19.87
2022-09-26T19:30:52.713Z,19.88
2022-09-26T19:33:20.688Z,19.87
2022-09-26T19:35:48.503Z,19.88
2022-09-26T19:38:21.929Z,19.87
2022-09-26T19:40:51.405Z,19.88
2022-09-26T19:43:19.557Z,19.87
2022-09-26T19:45:47.368Z,19.87
2022-09-26T19:48:15.769Z,19.85
2022-09-26T19:50:43.550Z,19.85
2022-09-26T19:53:12.104Z,19.83
2022-09-26T19:55:41.149Z,19.83
2022-09-26T19:58:12.311Z,19.82
2022-09-26T20:00:41.626Z,19.82
2022-09-26T20:03:10.959Z,19.82
2022-09-26T20:05:39.401Z,19.82
2022-09-26T20:08:09.233Z,19.81
2022-09-26T20:10:37.282Z,19.82
2022-09-26T20:13:08.888Z,19.83
2022-09-26T20:15:37.700Z,19.82
2022-09-26T20:18:06.422Z,19.83
2022-09-26T20:20:34.922Z,19.81
2022-09-26T20:23:02.624Z,19.82
2022-09-26T20:25:30.962Z,19.81
2022-09-26T20:27:58.756Z,19.81
2022-09-26T20:30:45.565Z,19.81
2022-09-26T20:33:13.405Z,19.81
2022-09-26T20:35:41.539Z,19.80
2022-09-26T20:38:10.059Z,19.80
2022-09-26T20:40:38.440Z,19.79
2022-09-26T20:43:07.146Z,19.79
2022-09-26T20:45:38.341Z,19.79
2022-09-26T20:48:07.988Z,19.79
2022-09-26T20:50:38.523Z,19.79
2022-09-26T20:53:10.579Z,19.79
2022-09-26T20:55:43.233Z,19.79
2022-09-26T20:58:11.674Z,19.79
2022-09-26T21:00:43.490Z,19.80
2022-09-26T21:03:11.519Z,19.79
2022-09-26T21:05:39.233Z,19.79
2022-09-26T21:08:09.359Z,19.78
2022-09-26T21:10:37.583Z,19.78
2022-09-26T21:13:05.311Z,19.78
2022-09-26T21:15:33.371Z,19.78
2022-09-26T21:18:02.693Z,19.78
2022-09-26T21:20:30.789Z,19.79
2022-09-26T21:23:06.420Z,19.77
2022-09-26T21:25:35.480Z,19.78
2022-09-26T21:28:08.333Z,19.77
2022-09-26T21:30:37.221Z,19.77
2022-09-26T21:33:07.437Z,19.77
2022-09-26T21:35:38.074Z,19.78
2022-09-26T21:38:08.612Z,19.75
2022-09-26T21:40:37.566Z,19.76
2022-09-26T21:43:06.943Z,19.77
2022-09-26T21:45:35.883Z,19.77
2022-09-26T21:48:04.360Z,19.75
2022-09-26T21:50:33.580Z,19.75
2022-09-26T21:53:01.758Z,19.75
2022-09-26T21:55:30.990Z,19.75
2022-09-26T21:58:00.005Z,19.75
2022-09-26T22:00:28.284Z,19.76
2022-09-26T22:02:58.896Z,19.74
2022-09-26T22:05:27.195Z,19.73
2022-09-26T22:07:57.589Z,19.73
2022-09-26T22:10:25.806Z,19.75
2022-09-26T22:12:53.867Z,19.75
2022-09-26T22:15:22.860Z,19.75
2022-09-26T22:17:51.488Z,19.75
2022-09-26T22:20:19.507Z,19.75
2022-09-26T22:22:47.260Z,19.75
2022-09-26T22:25:16.613Z,19.75
2022-09-26T22:27:44.466Z,19.75
2022-09-26T22:30:12.983Z,19.75
2022-09-26T22:32:40.904Z,19.74
2022-09-26T22:35:09.838Z,19.75
2022-09-26T22:37:39.122Z,19.76
2022-09-26T22:40:07.730Z,19.75
2022-09-26T22:42:37.019Z,19.74
2022-09-26T22:45:05.590Z,19.76
2022-09-26T22:47:33.770Z,19.77
2022-09-26T22:50:01.446Z,19.78
2022-09-26T22:52:29.210Z,19.75
2022-09-26T22:54:56.950Z,19.78
2022-09-26T22:57:24.670Z,19.79
2022-09-26T22:59:54.199Z,19.77
2022-09-26T23:47:39.673Z,19.75
2022-09-26T23:50:08.043Z,19.75
2022-09-26T23:52:36.035Z,19.76
2022-09-26T23:55:03.567Z,19.75
2022-09-26T23:57:31.112Z,19.76
2022-09-26T23:59:58.795Z,19.77
